Alligator Point, Florida
Current Conditions -  °F | °C
As of 9:53 AM on Friday 24 Oct 2014 (Local Time) from KTLH Reporting Station
Clear Clear  
Wind Chill: 62°   Ceiling: Unl
Heat Index: 62°   Visibility: 10mi
Dew Point: 49°   Wind: 0mph
Humidity: 62%   Direction: NA
Pressure: 30.07"   Gusts: NA
Location:  30.0223°N, 84.3911°W
Report Text: KTLH 241353Z 00000KT 10SM CLR 17/09 A3007 RMK AO2 SLP182 T01670094 $
Loading
Personal Weather Stations






























Interactive Weather Map
Tropical Storm Tracking
New forecast layout! Learn more

10-Day Weather Forecast

Advertisements
Track Severe Weather on mobile